Stanford-le-Hope, United Kingdom
Current Conditions -  °F | °C
As of 9:20 PM on Friday 19 Dec 2014 (Local Time) from EGMC Reporting Station
Clear Clear  
Wind Chill: 35°   Ceiling: Unl
Heat Index: 43°   Visibility: 6mi
Dew Point: 36°   Wind: 15mph
Humidity: 76%   Direction: 240°WSW
Pressure: 30.15"   Gusts: NA
Location:  51.52°N, 0.44°E
Report Text: EGMC 192120Z 24013KT CAVOK 06/02 Q1021
Loading
Personal Weather Stations






























Interactive Weather Map New forecast layout! Learn more

10-Day Weather Forecast

Advertisements
Track Severe Weather on mobile